sensor_id;sensor_type;location;lat;lon;timestamp;pressure;altitude;pressure_sealevel;temperature;humidity
11077;BME280;5591;42.626;23.380;2023-03-11T00:00:34;92382.53;;;14.02;100.00
11077;BME280;5591;42.626;23.380;2023-03-11T00:03:03;92365.31;;;14.26;100.00
11077;BME280;5591;42.626;23.380;2023-03-11T00:05:31;92395.94;;;13.64;100.00
11077;BME280;5591;42.626;23.380;2023-03-11T00:07:59;92399.09;;;13.61;100.00
11077;BME280;5591;42.626;23.380;2023-03-11T00:10:29;92410.25;;;12.50;100.00
11077;BME280;5591;42.626;23.380;2023-03-11T00:12:58;92408.72;;;12.33;100.00
11077;BME280;5591;42.626;23.380;2023-03-11T00:15:25;92323.47;;;11.91;100.00
11077;BME280;5591;42.626;23.380;2023-03-11T00:17:52;92387.97;;;11.49;100.00
11077;BME280;5591;42.626;23.380;2023-03-11T00:20:20;92388.78;;;11.50;100.00
11077;BME280;5591;42.626;23.380;2023-03-11T00:22:47;92393.56;;;11.53;100.00
11077;BME280;5591;42.626;23.380;2023-03-11T00:25:16;92381.63;;;11.78;100.00
11077;BME280;5591;42.626;23.380;2023-03-11T00:27:43;92401.53;;;11.74;100.00
11077;BME280;5591;42.626;23.380;2023-03-11T00:30:13;92379.63;;;11.85;100.00
11077;BME280;5591;42.626;23.380;2023-03-11T00:32:40;92364.91;;;11.68;100.00
11077;BME280;5591;42.626;23.380;2023-03-11T00:35:09;92376.44;;;11.34;100.00
11077;BME280;5591;42.626;23.380;2023-03-11T00:37:37;92370.31;;;11.28;100.00
11077;BME280;5591;42.626;23.380;2023-03-11T00:40:05;92370.88;;;11.63;100.00
11077;BME280;5591;42.626;23.380;2023-03-11T00:42:33;92369.84;;;11.81;100.00
11077;BME280;5591;42.626;23.380;2023-03-11T00:45:00;92384.13;;;11.68;100.00
11077;BME280;5591;42.626;23.380;2023-03-11T00:47:28;92383.06;;;11.69;100.00
11077;BME280;5591;42.626;23.380;2023-03-11T00:49:55;92370.63;;;11.32;100.00
11077;BME280;5591;42.626;23.380;2023-03-11T00:52:21;92365.13;;;11.33;100.00
11077;BME280;5591;42.626;23.380;2023-03-11T00:54:48;92343.16;;;11.89;100.00
11077;BME280;5591;42.626;23.380;2023-03-11T00:57:15;92337.28;;;11.82;100.00
11077;BME280;5591;42.626;23.380;2023-03-11T00:59:42;92334.31;;;12.16;100.00
11077;BME280;5591;42.626;23.380;2023-03-11T01:02:08;92226.78;;;11.72;100.00
11077;BME280;5591;42.626;23.380;2023-03-11T01:04:37;92322.22;;;12.37;100.00
11077;BME280;5591;42.626;23.380;2023-03-11T01:07:04;92325.75;;;12.47;100.00
11077;BME280;5591;42.626;23.380;2023-03-11T01:09:30;92320.69;;;12.40;100.00
11077;BME280;5591;42.626;23.380;2023-03-11T01:11:57;92312.28;;;12.43;100.00
11077;BME280;5591;42.626;23.380;2023-03-11T01:14:24;92301.06;;;12.27;100.00
11077;BME280;5591;42.626;23.380;2023-03-11T01:16:51;92322.94;;;12.11;100.00
11077;BME280;5591;42.626;23.380;2023-03-11T01:19:18;92306.97;;;12.17;100.00
11077;BME280;5591;42.626;23.380;2023-03-11T01:21:46;92313.41;;;12.05;100.00
11077;BME280;5591;42.626;23.380;2023-03-11T01:24:13;92315.28;;;12.31;100.00
11077;BME280;5591;42.626;23.380;2023-03-11T01:26:39;92311.13;;;12.34;100.00
11077;BME280;5591;42.626;23.380;2023-03-11T01:29:06;92284.78;;;11.87;100.00
11077;BME280;5591;42.626;23.380;2023-03-11T01:31:33;92305.72;;;11.98;100.00
11077;BME280;5591;42.626;23.380;2023-03-11T01:34:00;92297.72;;;11.39;100.00
11077;BME280;5591;42.626;23.380;2023-03-11T01:36:26;92288.13;;;11.82;100.00
11077;BME280;5591;42.626;23.380;2023-03-11T01:38:55;92287.81;;;11.79;100.00
11077;BME280;5591;42.626;23.380;2023-03-11T01:41:21;92286.13;;;11.89;100.00
11077;BME280;5591;42.626;23.380;2023-03-11T01:43:51;92245.47;;;11.97;100.00
11077;BME280;5591;42.626;23.380;2023-03-11T01:46:22;92228.50;;;11.83;100.00
11077;BME280;5591;42.626;23.380;2023-03-11T01:48:51;92233.06;;;11.54;100.00
11077;BME280;5591;42.626;23.380;2023-03-11T01:51:23;92216.88;;;11.41;100.00
11077;BME280;5591;42.626;23.380;2023-03-11T01:53:52;92233.50;;;11.63;100.00
11077;BME280;5591;42.626;23.380;2023-03-11T01:56:21;92224.56;;;11.64;100.00
11077;BME280;5591;42.626;23.380;2023-03-11T01:58:50;92233.31;;;11.91;100.00
11077;BME280;5591;42.626;23.380;2023-03-11T02:01:18;92243.56;;;11.71;100.00
11077;BME280;5591;42.626;23.380;2023-03-11T02:03:46;92260.38;;;11.53;100.00
11077;BME280;5591;42.626;23.380;2023-03-11T02:06:16;92276.41;;;11.35;100.00
11077;BME280;5591;42.626;23.380;2023-03-11T02:08:44;92283.66;;;11.28;100.00
11077;BME280;5591;42.626;23.380;2023-03-11T02:11:15;92284.44;;;11.45;100.00
11077;BME280;5591;42.626;23.380;2023-03-11T02:13:44;92301.88;;;11.35;100.00
11077;BME280;5591;42.626;23.380;2023-03-11T02:16:11;92290.66;;;11.39;100.00
11077;BME280;5591;42.626;23.380;2023-03-11T02:18:39;92300.44;;;11.44;100.00
11077;BME280;5591;42.626;23.380;2023-03-11T02:21:15;92283.50;;;11.02;100.00
11077;BME280;5591;42.626;23.380;2023-03-11T02:23:50;92278.63;;;11.27;100.00
11077;BME280;5591;42.626;23.380;2023-03-11T02:26:22;92320.34;;;11.40;100.00
11077;BME280;5591;42.626;23.380;2023-03-11T02:28:52;92320.94;;;11.80;100.00
11077;BME280;5591;42.626;23.380;2023-03-11T02:31:20;92312.81;;;11.81;100.00
11077;BME280;5591;42.626;23.380;2023-03-11T02:33:49;92311.81;;;12.04;100.00
11077;BME280;5591;42.626;23.380;2023-03-11T02:36:36;92312.78;;;11.98;100.00
11077;BME280;5591;42.626;23.380;2023-03-11T02:39:03;92304.41;;;11.79;100.00
11077;BME280;5591;42.626;23.380;2023-03-11T02:41:32;92320.00;;;11.53;100.00
11077;BME280;5591;42.626;23.380;2023-03-11T02:44:02;92289.53;;;11.68;100.00
11077;BME280;5591;42.626;23.380;2023-03-11T02:46:30;92323.50;;;11.75;100.00
11077;BME280;5591;42.626;23.380;2023-03-11T02:48:58;92325.88;;;11.93;100.00
11077;BME280;5591;42.626;23.380;2023-03-11T02:51:25;92328.44;;;11.71;100.00
11077;BME280;5591;42.626;23.380;2023-03-11T02:53:55;92318.31;;;11.47;100.00
11077;BME280;5591;42.626;23.380;2023-03-11T02:56:23;92336.28;;;11.66;100.00
11077;BME280;5591;42.626;23.380;2023-03-11T02:58:49;92326.53;;;11.67;100.00
11077;BME280;5591;42.626;23.380;2023-03-11T03:01:18;92332.19;;;11.42;100.00
11077;BME280;5591;42.626;23.380;2023-03-11T03:03:44;92318.50;;;11.57;100.00
11077;BME280;5591;42.626;23.380;2023-03-11T03:06:11;92324.47;;;11.69;100.00
11077;BME280;5591;42.626;23.380;2023-03-11T03:08:38;92278.00;;;11.36;100.00
11077;BME280;5591;42.626;23.380;2023-03-11T03:11:05;92333.91;;;11.86;100.00
11077;BME280;5591;42.626;23.380;2023-03-11T03:13:32;92342.06;;;11.85;100.00
11077;BME280;5591;42.626;23.380;2023-03-11T03:15:59;92323.91;;;11.67;100.00
11077;BME280;5591;42.626;23.380;2023-03-11T03:18:27;92318.88;;;11.65;100.00
11077;BME280;5591;42.626;23.380;2023-03-11T03:20:54;92314.06;;;11.57;100.00
11077;BME280;5591;42.626;23.380;2023-03-11T03:23:21;92316.34;;;11.70;100.00
11077;BME280;5591;42.626;23.380;2023-03-11T03:25:48;92322.63;;;11.53;100.00
11077;BME280;5591;42.626;23.380;2023-03-11T03:28:15;92292.78;;;11.42;100.00
11077;BME280;5591;42.626;23.380;2023-03-11T03:30:42;92312.91;;;11.53;100.00
11077;BME280;5591;42.626;23.380;2023-03-11T03:33:09;92318.09;;;11.15;100.00
11077;BME280;5591;42.626;23.380;2023-03-11T03:35:41;92322.72;;;11.41;100.00
11077;BME280;5591;42.626;23.380;2023-03-11T03:38:08;92318.47;;;11.73;100.00
11077;BME280;5591;42.626;23.380;2023-03-11T03:40:35;92313.50;;;11.93;100.00
11077;BME280;5591;42.626;23.380;2023-03-11T03:43:02;92315.06;;;11.73;100.00
11077;BME280;5591;42.626;23.380;2023-03-11T03:45:29;92324.63;;;11.46;100.00
11077;BME280;5591;42.626;23.380;2023-03-11T03:47:56;92308.88;;;11.13;100.00
11077;BME280;5591;42.626;23.380;2023-03-11T03:50:23;92303.94;;;11.66;100.00
11077;BME280;5591;42.626;23.380;2023-03-11T03:52:51;92309.91;;;11.99;100.00
11077;BME280;5591;42.626;23.380;2023-03-11T03:55:18;92306.31;;;12.05;100.00
11077;BME280;5591;42.626;23.380;2023-03-11T03:57:44;92306.69;;;12.14;100.00
11077;BME280;5591;42.626;23.380;2023-03-11T04:00:12;92305.16;;;12.18;100.00
11077;BME280;5591;42.626;23.380;2023-03-11T04:02:40;92306.19;;;12.17;100.00
11077;BME280;5591;42.626;23.380;2023-03-11T04:05:08;92256.97;;;11.53;100.00
11077;BME280;5591;42.626;23.380;2023-03-11T04:07:35;92309.91;;;12.21;100.00
11077;BME280;5591;42.626;23.380;2023-03-11T04:10:04;92313.81;;;11.97;100.00
11077;BME280;5591;42.626;23.380;2023-03-11T04:12:31;92325.16;;;12.19;100.00
11077;BME280;5591;42.626;23.380;2023-03-11T04:14:58;92326.00;;;12.24;100.00
11077;BME280;5591;42.626;23.380;2023-03-11T04:17:25;92313.47;;;12.31;100.00
11077;BME280;5591;42.626;23.380;2023-03-11T04:19:52;92322.88;;;12.27;100.00
11077;BME280;5591;42.626;23.380;2023-03-11T04:22:18;92312.72;;;12.14;100.00
11077;BME280;5591;42.626;23.380;2023-03-11T04:24:45;92322.03;;;12.22;100.00
11077;BME280;5591;42.626;23.380;2023-03-11T04:27:14;92334.94;;;12.23;100.00
11077;BME280;5591;42.626;23.380;2023-03-11T04:29:40;92330.09;;;12.15;100.00
11077;BME280;5591;42.626;23.380;2023-03-11T04:32:07;92337.22;;;12.15;100.00
11077;BME280;5591;42.626;23.380;2023-03-11T04:34:34;92333.53;;;12.37;100.00
11077;BME280;5591;42.626;23.380;2023-03-11T04:37:01;92336.09;;;12.32;100.00
11077;BME280;5591;42.626;23.380;2023-03-11T04:39:27;92337.75;;;12.38;100.00
11077;BME280;5591;42.626;23.380;2023-03-11T04:41:55;92332.78;;;12.41;100.00
11077;BME280;5591;42.626;23.380;2023-03-11T04:44:23;92319.88;;;12.40;100.00
11077;BME280;5591;42.626;23.380;2023-03-11T04:46:50;92320.13;;;12.38;100.00
11077;BME280;5591;42.626;23.380;2023-03-11T04:49:16;92322.03;;;12.22;100.00
11077;BME280;5591;42.626;23.380;2023-03-11T04:51:43;92321.94;;;11.95;100.00
11077;BME280;5591;42.626;23.380;2023-03-11T04:54:10;92293.84;;;11.96;100.00
11077;BME280;5591;42.626;23.380;2023-03-11T04:56:37;92313.88;;;12.44;100.00
11077;BME280;5591;42.626;23.380;2023-03-11T04:59:04;92342.00;;;12.65;100.00
11077;BME280;5591;42.626;23.380;2023-03-11T05:01:32;92353.28;;;12.61;100.00
11077;BME280;5591;42.626;23.380;2023-03-11T05:03:59;92344.91;;;12.42;100.00
11077;BME280;5591;42.626;23.380;2023-03-11T05:06:25;92354.38;;;12.43;100.00
11077;BME280;5591;42.626;23.380;2023-03-11T05:08:52;92355.31;;;12.54;100.00
11077;BME280;5591;42.626;23.380;2023-03-11T05:11:19;92354.25;;;12.33;100.00
11077;BME280;5591;42.626;23.380;2023-03-11T05:13:46;92363.88;;;12.44;100.00
11077;BME280;5591;42.626;23.380;2023-03-11T05:16:13;92358.72;;;12.76;100.00
11077;BME280;5591;42.626;23.380;2023-03-11T05:18:41;92365.53;;;12.93;100.00
11077;BME280;5591;42.626;23.380;2023-03-11T05:21:08;92373.78;;;12.59;100.00
11077;BME280;5591;42.626;23.380;2023-03-11T05:23:34;92374.00;;;12.79;100.00
11077;BME280;5591;42.626;23.380;2023-03-11T05:26:01;92321.28;;;12.47;100.00
11077;BME280;5591;42.626;23.380;2023-03-11T05:28:28;92374.06;;;13.32;100.00
11077;BME280;5591;42.626;23.380;2023-03-11T05:30:55;92386.34;;;13.48;100.00
11077;BME280;5591;42.626;23.380;2023-03-11T05:33:21;92378.59;;;12.88;100.00
11077;BME280;5591;42.626;23.380;2023-03-11T05:35:50;92393.53;;;13.04;100.00
11077;BME280;5591;42.626;23.380;2023-03-11T05:38:16;92405.03;;;13.20;100.00
11077;BME280;5591;42.626;23.380;2023-03-11T05:40:43;92400.66;;;12.82;100.00
11077;BME280;5591;42.626;23.380;2023-03-11T05:43:10;92404.81;;;13.26;100.00
11077;BME280;5591;42.626;23.380;2023-03-11T05:45:37;92399.91;;;13.35;100.00
11077;BME280;5591;42.626;23.380;2023-03-11T05:48:04;92420.50;;;13.38;100.00
11077;BME280;5591;42.626;23.380;2023-03-11T05:50:31;92355.53;;;13.22;100.00
11077;BME280;5591;42.626;23.380;2023-03-11T05:52:59;92406.56;;;13.69;100.00
11077;BME280;5591;42.626;23.380;2023-03-11T05:55:26;92417.44;;;13.77;100.00
11077;BME280;5591;42.626;23.380;2023-03-11T05:57:52;92420.84;;;13.46;100.00
11077;BME280;5591;42.626;23.380;2023-03-11T06:00:20;92436.59;;;13.99;100.00
11077;BME280;5591;42.626;23.380;2023-03-11T06:02:47;92434.00;;;13.73;100.00
11077;BME280;5591;42.626;23.380;2023-03-11T06:05:14;92433.78;;;13.79;100.00
11077;BME280;5591;42.626;23.380;2023-03-11T06:07:41;92440.47;;;13.34;100.00
11077;BME280;5591;42.626;23.380;2023-03-11T06:10:10;92432.31;;;13.09;100.00
11077;BME280;5591;42.626;23.380;2023-03-11T06:12:37;92417.47;;;13.03;100.00
11077;BME280;5591;42.626;23.380;2023-03-11T06:15:05;92432.44;;;13.45;100.00
11077;BME280;5591;42.626;23.380;2023-03-11T06:17:32;92422.13;;;13.44;100.00
11077;BME280;5591;42.626;23.380;2023-03-11T06:19:59;92440.56;;;13.70;100.00
11077;BME280;5591;42.626;23.380;2023-03-11T06:22:26;92438.22;;;13.47;100.00
11077;BME280;5591;42.626;23.380;2023-03-11T06:24:52;92442.66;;;13.68;100.00
11077;BME280;5591;42.626;23.380;2023-03-11T06:27:20;92443.81;;;13.51;100.00
11077;BME280;5591;42.626;23.380;2023-03-11T06:29:51;92375.81;;;13.48;100.00
11077;BME280;5591;42.626;23.380;2023-03-11T06:32:17;92447.72;;;14.06;100.00
11077;BME280;5591;42.626;23.380;2023-03-11T06:34:49;92450.94;;;14.13;100.00
11077;BME280;5591;42.626;23.380;2023-03-11T06:37:16;92446.41;;;14.09;100.00
11077;BME280;5591;42.626;23.380;2023-03-11T06:39:43;92443.78;;;13.77;100.00
11077;BME280;5591;42.626;23.380;2023-03-11T06:42:10;92404.09;;;13.94;97.84
11077;BME280;5591;42.626;23.380;2023-03-11T06:44:38;92447.00;;;14.16;97.82
11077;BME280;5591;42.626;23.380;2023-03-11T06:47:05;92443.22;;;14.38;95.72
11077;BME280;5591;42.626;23.380;2023-03-11T06:49:32;92436.13;;;14.07;97.47
11077;BME280;5591;42.626;23.380;2023-03-11T06:51:58;92454.53;;;14.02;92.41
11077;BME280;5591;42.626;23.380;2023-03-11T06:54:25;92433.47;;;13.44;93.60
11077;BME280;5591;42.626;23.380;2023-03-11T06:56:52;92422.81;;;13.61;93.85
11077;BME280;5591;42.626;23.380;2023-03-11T06:59:19;92440.59;;;12.96;98.98
11077;BME280;5591;42.626;23.380;2023-03-11T07:01:48;92427.66;;;13.16;98.48
11077;BME280;5591;42.626;23.380;2023-03-11T07:04:15;92432.34;;;13.14;97.28
11077;BME280;5591;42.626;23.380;2023-03-11T07:06:42;92436.41;;;13.21;96.93
11077;BME280;5591;42.626;23.380;2023-03-11T07:09:09;92450.75;;;13.35;97.38
11077;BME280;5591;42.626;23.380;2023-03-11T07:11:36;92446.25;;;13.31;98.15
11077;BME280;5591;42.626;23.380;2023-03-11T07:14:02;92432.59;;;12.69;100.00
11077;BME280;5591;42.626;23.380;2023-03-11T07:16:30;92450.44;;;13.05;100.00
11077;BME280;5591;42.626;23.380;2023-03-11T07:18:59;92428.28;;;13.01;100.00
11077;BME280;5591;42.626;23.380;2023-03-11T07:21:29;92441.91;;;13.46;100.00
11077;BME280;5591;42.626;23.380;2023-03-11T07:23:58;92433.69;;;13.38;100.00
11077;BME280;5591;42.626;23.380;2023-03-11T07:26:26;92434.84;;;13.78;99.57
11077;BME280;5591;42.626;23.380;2023-03-11T07:28:54;92430.97;;;13.59;97.83
11077;BME280;5591;42.626;23.380;2023-03-11T07:31:23;92429.53;;;14.10;94.14
11077;BME280;5591;42.626;23.380;2023-03-11T07:33:50;92433.91;;;13.94;93.94
11077;BME280;5591;42.626;23.380;2023-03-11T07:36:20;92414.72;;;13.14;93.80
11077;BME280;5591;42.626;23.380;2023-03-11T07:38:48;92424.59;;;13.87;89.23
11077;BME280;5591;42.626;23.380;2023-03-11T07:41:15;92425.94;;;13.84;87.69
11077;BME280;5591;42.626;23.380;2023-03-11T07:43:43;92415.38;;;14.21;87.29
11077;BME280;5591;42.626;23.380;2023-03-11T07:46:12;92413.97;;;14.08;89.77
11077;BME280;5591;42.626;23.380;2023-03-11T07:48:41;92410.44;;;13.35;91.99
11077;BME280;5591;42.626;23.380;2023-03-11T07:51:10;92404.72;;;13.43;92.64
11077;BME280;5591;42.626;23.380;2023-03-11T07:53:39;92410.09;;;13.53;91.15
11077;BME280;5591;42.626;23.380;2023-03-11T07:56:07;92394.34;;;13.58;90.73
11077;BME280;5591;42.626;23.380;2023-03-11T07:58:35;92376.28;;;13.45;91.36
11077;BME280;5591;42.626;23.380;2023-03-11T08:01:03;92387.00;;;13.65;87.79
11077;BME280;5591;42.626;23.380;2023-03-11T08:03:31;92383.84;;;14.04;87.35
11077;BME280;5591;42.626;23.380;2023-03-11T08:05:58;92372.31;;;14.15;81.56
11077;BME280;5591;42.626;23.380;2023-03-11T08:08:25;92362.41;;;14.89;81.37
11077;BME280;5591;42.626;23.380;2023-03-11T08:10:53;92322.66;;;14.49;81.56
11077;BME280;5591;42.626;23.380;2023-03-11T08:13:20;92358.00;;;14.43;81.00
11077;BME280;5591;42.626;23.380;2023-03-11T08:15:47;92364.41;;;14.57;75.09
11077;BME280;5591;42.626;23.380;2023-03-11T08:18:13;92363.81;;;14.45;68.86
11077;BME280;5591;42.626;23.380;2023-03-11T08:20:40;92352.19;;;14.41;67.03
11077;BME280;5591;42.626;23.380;2023-03-11T08:23:09;92342.25;;;14.63;65.25
11077;BME280;5591;42.626;23.380;2023-03-11T08:25:37;92339.88;;;14.61;65.47
11077;BME280;5591;42.626;23.380;2023-03-11T08:28:06;92328.38;;;15.02;65.10
11077;BME280;5591;42.626;23.380;2023-03-11T08:30:33;92323.44;;;15.45;63.05
11077;BME280;5591;42.626;23.380;2023-03-11T08:33:00;92326.88;;;15.51;61.21
11077;BME280;5591;42.626;23.380;2023-03-11T08:35:27;92314.19;;;15.58;61.01
11077;BME280;5591;42.626;23.380;2023-03-11T08:37:54;92339.59;;;14.63;61.22
11077;BME280;5591;42.626;23.380;2023-03-11T08:40:20;92332.03;;;14.86;59.97
11077;BME280;5591;42.626;23.380;2023-03-11T08:42:47;92356.41;;;15.13;59.77
11077;BME280;5591;42.626;23.380;2023-03-11T08:45:16;92317.88;;;15.32;60.28
11077;BME280;5591;42.626;23.380;2023-03-11T08:47:42;92321.84;;;15.64;59.04
11077;BME280;5591;42.626;23.380;2023-03-11T08:50:12;92313.41;;;15.52;59.41
11077;BME280;5591;42.626;23.380;2023-03-11T08:52:39;92315.16;;;14.97;63.11
11077;BME280;5591;42.626;23.380;2023-03-11T08:55:06;92308.94;;;14.47;62.15
11077;BME280;5591;42.626;23.380;2023-03-11T08:57:41;92185.16;;;13.79;63.33
11077;BME280;5591;42.626;23.380;2023-03-11T09:00:10;92304.25;;;14.74;61.64
11077;BME280;5591;42.626;23.380;2023-03-11T09:02:39;92282.97;;;15.60;60.49
11077;BME280;5591;42.626;23.380;2023-03-11T09:05:06;92294.84;;;15.27;60.58
11077;BME280;5591;42.626;23.380;2023-03-11T09:07:33;92314.63;;;14.95;59.21
11077;BME280;5591;42.626;23.380;2023-03-11T09:09:59;92297.75;;;15.01;59.97
11077;BME280;5591;42.626;23.380;2023-03-11T09:12:26;92295.16;;;15.46;58.88
11077;BME280;5591;42.626;23.380;2023-03-11T09:14:53;92282.59;;;16.21;56.27
11077;BME280;5591;42.626;23.380;2023-03-11T09:17:20;92286.78;;;16.32;57.77
11077;BME280;5591;42.626;23.380;2023-03-11T09:19:49;92285.03;;;16.03;60.20
11077;BME280;5591;42.626;23.380;2023-03-11T09:22:16;92278.97;;;15.87;59.43
11077;BME280;5591;42.626;23.380;2023-03-11T09:24:42;92290.03;;;16.24;58.44
11077;BME280;5591;42.626;23.380;2023-03-11T09:27:09;92275.44;;;16.27;60.50
11077;BME280;5591;42.626;23.380;2023-03-11T09:29:37;92280.25;;;16.15;60.42
11077;BME280;5591;42.626;23.380;2023-03-11T09:32:04;92270.84;;;15.39;63.14
11077;BME280;5591;42.626;23.380;2023-03-11T09:34:31;92275.81;;;15.20;65.19
11077;BME280;5591;42.626;23.380;2023-03-11T09:36:59;92269.16;;;14.73;69.11
11077;BME280;5591;42.626;23.380;2023-03-11T09:39:26;92265.50;;;15.19;68.46
11077;BME280;5591;42.626;23.380;2023-03-11T09:41:55;92262.63;;;15.35;67.05
11077;BME280;5591;42.626;23.380;2023-03-11T09:44:27;92264.97;;;15.22;62.96
11077;BME280;5591;42.626;23.380;2023-03-11T09:47:19;92259.19;;;15.65;61.43
11077;BME280;5591;42.626;23.380;2023-03-11T09:50:07;92271.06;;;15.77;60.83
11077;BME280;5591;42.626;23.380;2023-03-11T09:52:43;92260.94;;;16.09;58.65
11077;BME280;5591;42.626;23.380;2023-03-11T09:55:33;92299.59;;;16.00;58.65
11077;BME280;5591;42.626;23.380;2023-03-11T09:58:08;92268.00;;;16.34;57.42
11077;BME280;5591;42.626;23.380;2023-03-11T10:00:36;92263.41;;;16.64;55.31
11077;BME280;5591;42.626;23.380;2023-03-11T10:03:05;92282.41;;;16.76;53.99
11077;BME280;5591;42.626;23.380;2023-03-11T10:05:40;92271.59;;;15.69;56.73
11077;BME280;5591;42.626;23.380;2023-03-11T10:08:15;92270.75;;;16.04;56.52
11077;BME280;5591;42.626;23.380;2023-03-11T10:10:50;92285.09;;;15.78;57.06
11077;BME280;5591;42.626;23.380;2023-03-11T10:13:25;92272.06;;;16.06;56.49
11077;BME280;5591;42.626;23.380;2023-03-11T10:16:03;92274.63;;;16.41;54.51
11077;BME280;5591;42.626;23.380;2023-03-11T10:18:45;92277.50;;;16.50;54.79
11077;BME280;5591;42.626;23.380;2023-03-11T10:21:22;92289.66;;;16.56;54.46
11077;BME280;5591;42.626;23.380;2023-03-11T10:24:10;92308.13;;;17.24;52.54
11077;BME280;5591;42.626;23.380;2023-03-11T10:26:41;92298.03;;;16.78;54.47
11077;BME280;5591;42.626;23.380;2023-03-11T10:29:15;92285.13;;;16.61;54.82
11077;BME280;5591;42.626;23.380;2023-03-11T10:31:48;92300.84;;;16.38;54.87
11077;BME280;5591;42.626;23.380;2023-03-11T10:34:19;92307.81;;;17.31;52.10
11077;BME280;5591;42.626;23.380;2023-03-11T10:36:54;92289.91;;;17.51;51.72
11077;BME280;5591;42.626;23.380;2023-03-11T10:39:25;92313.28;;;17.06;51.50
11077;BME280;5591;42.626;23.380;2023-03-11T10:41:54;92308.22;;;17.09;51.82
11077;BME280;5591;42.626;23.380;2023-03-11T10:44:26;92287.88;;;17.38;51.60
11077;BME280;5591;42.626;23.380;2023-03-11T10:46:54;92274.66;;;16.90;52.91
11077;BME280;5591;42.626;23.380;2023-03-11T10:49:21;92296.16;;;16.83;52.34
11077;BME280;5591;42.626;23.380;2023-03-11T13:24:48;92281.06;;;16.79;52.93
11077;BME280;5591;42.626;23.380;2023-03-11T13:27:32;92280.72;;;16.27;54.02
11077;BME280;5591;42.626;23.380;2023-03-11T13:30:09;92285.22;;;16.31;53.96
11077;BME280;5591;42.626;23.380;2023-03-11T13:32:58;92283.44;;;16.07;54.60
11077;BME280;5591;42.626;23.380;2023-03-11T13:35:40;92295.09;;;15.96;55.91
11077;BME280;5591;42.626;23.380;2023-03-11T13:38:22;92308.88;;;15.43;59.49
11077;BME280;5591;42.626;23.380;2023-03-11T13:40:57;92326.72;;;14.76;69.80
11077;BME280;5591;42.626;23.380;2023-03-11T13:43:26;92342.56;;;14.20;87.63
11077;BME280;5591;42.626;23.380;2023-03-11T13:45:56;92342.69;;;13.62;100.00
11077;BME280;5591;42.626;23.380;2023-03-11T13:48:27;92361.44;;;13.07;100.00
11077;BME280;5591;42.626;23.380;2023-03-11T13:50:59;92293.78;;;12.12;100.00
11077;BME280;5591;42.626;23.380;2023-03-11T13:53:30;92313.72;;;11.70;100.00
11077;BME280;5591;42.626;23.380;2023-03-11T13:55:59;92400.59;;;11.64;100.00
11077;BME280;5591;42.626;23.380;2023-03-11T13:58:27;92375.09;;;11.81;100.00
11077;BME280;5591;42.626;23.380;2023-03-11T14:00:55;92380.19;;;11.71;100.00
11077;BME280;5591;42.626;23.380;2023-03-11T14:03:24;92395.34;;;11.80;100.00
11077;BME280;5591;42.626;23.380;2023-03-11T14:05:57;92375.47;;;12.06;100.00
11077;BME280;5591;42.626;23.380;2023-03-11T14:08:26;92396.59;;;11.94;100.00
11077;BME280;5591;42.626;23.380;2023-03-11T14:10:55;92355.91;;;12.18;100.00
11077;BME280;5591;42.626;23.380;2023-03-11T14:13:25;92363.00;;;12.39;100.00
11077;BME280;5591;42.626;23.380;2023-03-11T14:15:58;92360.25;;;12.29;100.00
11077;BME280;5591;42.626;23.380;2023-03-11T14:18:34;92376.22;;;12.44;100.00
11077;BME280;5591;42.626;23.380;2023-03-11T14:21:03;92377.56;;;12.89;100.00
11077;BME280;5591;42.626;23.380;2023-03-11T14:23:33;92366.97;;;12.84;100.00
11077;BME280;5591;42.626;23.380;2023-03-11T14:26:04;92363.78;;;13.04;100.00
11077;BME280;5591;42.626;23.380;2023-03-11T14:28:35;92364.28;;;13.27;100.00
11077;BME280;5591;42.626;23.380;2023-03-11T14:31:04;92355.47;;;13.43;100.00
11077;BME280;5591;42.626;23.380;2023-03-11T14:33:31;92369.97;;;13.46;100.00
11077;BME280;5591;42.626;23.380;2023-03-11T14:36:01;92366.53;;;13.77;100.00
11077;BME280;5591;42.626;23.380;2023-03-11T14:38:30;92374.94;;;14.10;100.00
11077;BME280;5591;42.626;23.380;2023-03-11T14:40:58;92363.84;;;14.50;100.00
11077;BME280;5591;42.626;23.380;2023-03-11T14:43:26;92362.88;;;14.66;100.00
11077;BME280;5591;42.626;23.380;2023-03-11T14:45:56;92374.88;;;15.03;100.00
11077;BME280;5591;42.626;23.380;2023-03-11T14:48:26;92379.41;;;15.27;100.00
11077;BME280;5591;42.626;23.380;2023-03-11T14:50:56;92395.00;;;15.19;100.00
11077;BME280;5591;42.626;23.380;2023-03-11T14:53:25;92393.03;;;14.85;99.05
11077;BME280;5591;42.626;23.380;2023-03-11T14:55:55;92397.09;;;15.17;97.41
11077;BME280;5591;42.626;23.380;2023-03-11T14:58:28;92388.13;;;15.18;100.00
11077;BME280;5591;42.626;23.380;2023-03-11T15:00:59;92394.28;;;15.43;100.00
11077;BME280;5591;42.626;23.380;2023-03-11T15:03:28;92392.44;;;15.34;100.00
11077;BME280;5591;42.626;23.380;2023-03-11T15:05:58;92404.75;;;15.13;100.00
11077;BME280;5591;42.626;23.380;2023-03-11T15:08:30;92409.44;;;14.87;100.00
11077;BME280;5591;42.626;23.380;2023-03-11T15:11:05;92412.31;;;14.80;100.00
11077;BME280;5591;42.626;23.380;2023-03-11T15:13:33;92417.69;;;15.10;100.00
11077;BME280;5591;42.626;23.380;2023-03-11T15:16:02;92417.13;;;14.98;100.00
11077;BME280;5591;42.626;23.380;2023-03-11T15:18:33;92435.06;;;14.96;100.00
11077;BME280;5591;42.626;23.380;2023-03-11T15:21:05;92440.06;;;14.93;100.00
11077;BME280;5591;42.626;23.380;2023-03-11T15:23:34;92439.25;;;14.87;100.00
11077;BME280;5591;42.626;23.380;2023-03-11T15:26:02;92443.16;;;14.28;100.00
11077;BME280;5591;42.626;23.380;2023-03-11T15:28:32;92447.53;;;14.49;100.00
11077;BME280;5591;42.626;23.380;2023-03-11T15:31:27;92455.38;;;13.02;100.00
11077;BME280;5591;42.626;23.380;2023-03-11T15:34:07;92453.06;;;13.53;100.00